createdAt,value
2019-03-05T00:00:55.932Z,86.43
2019-03-05T00:01:55.944Z,86.05
2019-03-05T00:02:55.960Z,86.34
2019-03-05T00:03:55.975Z,86.34
2019-03-05T00:04:55.991Z,86.43
2019-03-05T00:05:56.008Z,86.53
2019-03-05T00:06:56.022Z,86.82
2019-03-05T00:07:56.040Z,86.63
2019-03-05T00:08:56.056Z,85.77
2019-03-05T00:09:56.154Z,85.86
2019-03-05T00:10:56.086Z,85.86
2019-03-05T00:11:56.104Z,85.86
2019-03-05T00:13:56.133Z,86.63
2019-03-05T00:15:10.813Z,86.63
2019-03-05T00:15:56.166Z,86.05
2019-03-05T00:16:56.188Z,86.05
2019-03-05T00:17:56.198Z,86.05
2019-03-05T00:18:56.214Z,86.43
2019-03-05T00:19:56.228Z,86.34
2019-03-05T00:20:56.245Z,86.63
2019-03-05T00:21:56.261Z,86.63
2019-03-05T00:22:56.277Z,86.43
2019-03-05T00:23:56.293Z,87.57
2019-03-05T00:24:56.309Z,87.38
2019-03-05T00:25:56.345Z,87.01
2019-03-05T00:26:56.342Z,87.38
2019-03-05T00:27:56.359Z,87.1
2019-03-05T00:28:56.379Z,87.48
2019-03-05T00:29:56.390Z,86.24
2019-03-05T00:31:11.071Z,86.91
2019-03-05T00:31:56.419Z,86.91
2019-03-05T00:32:56.442Z,86.72
2019-03-05T00:33:56.451Z,86.63
2019-03-05T00:34:56.466Z,86.63
2019-03-05T00:35:56.487Z,86.63
2019-03-05T00:36:56.499Z,86.43
2019-03-05T00:37:56.521Z,86.15
2019-03-05T00:38:56.531Z,86.05
2019-03-05T00:41:56.583Z,85.77
2019-03-05T00:42:57.594Z,85.77
2019-03-05T00:43:56.611Z,86.24
2019-03-05T00:44:56.626Z,86.76
2019-03-05T00:45:56.642Z,86.15
2019-03-05T00:47:11.321Z,85.2
2019-03-05T00:47:56.674Z,85.91
2019-03-05T00:48:56.693Z,85.81
2019-03-05T00:49:56.706Z,85.81
2019-03-05T00:50:56.721Z,86.38
2019-03-05T00:51:56.739Z,86.1
2019-03-05T00:52:56.754Z,86.1
2019-03-05T00:53:56.769Z,85.77
2019-03-05T00:54:56.784Z,85.2
2019-03-05T00:56:56.817Z,85.39
2019-03-05T00:57:56.834Z,85.81
2019-03-05T00:58:56.852Z,85.01
2019-03-05T00:59:56.875Z,86
2019-03-05T01:00:56.881Z,85.77
2019-03-05T01:02:11.561Z,85.86
2019-03-05T01:02:56.915Z,85.34
2019-03-05T01:03:56.932Z,85.43
2019-03-05T01:04:56.947Z,86
2019-03-05T01:05:56.960Z,85.53
2019-03-05T01:06:56.977Z,85.62
2019-03-05T01:07:56.996Z,85.53
2019-03-05T01:08:57.115Z,85.53
2019-03-05T01:09:57.028Z,85.24
2019-03-05T01:10:57.043Z,85.24
2019-03-05T01:11:57.056Z,85.62
2019-03-05T01:14:57.103Z,85.05
2019-03-05T01:15:57.124Z,85.24
2019-03-05T01:16:57.136Z,85.43
2019-03-05T01:17:57.155Z,85.43
2019-03-05T01:18:57.167Z,85.24
2019-03-05T01:19:57.185Z,84.86
2019-03-05T01:20:57.199Z,85.24
2019-03-05T01:21:57.219Z,85.34
2019-03-05T01:22:56.984Z,84.58
2019-03-05T01:23:57.252Z,84.58
2019-03-05T01:24:57.327Z,85.15
2019-03-05T01:25:57.280Z,84.39
2019-03-05T01:26:57.299Z,84.29
2019-03-05T01:27:57.312Z,84.39
2019-03-05T01:28:57.335Z,84.2
2019-03-05T01:29:57.343Z,84.67
2019-03-05T01:30:57.360Z,84.48
2019-03-05T01:31:57.382Z,84.48
2019-03-05T01:32:57.395Z,84.86
2019-03-05T01:34:12.072Z,85.01
2019-03-05T01:34:57.425Z,85.34
2019-03-05T01:35:57.444Z,85.34
2019-03-05T01:36:57.457Z,84.95
2019-03-05T01:37:57.472Z,84.91
2019-03-05T01:38:57.493Z,85.05
2019-03-05T01:39:57.505Z,85.15
2019-03-05T01:40:57.527Z,85.39
2019-03-05T01:41:57.538Z,85.86
2019-03-05T01:42:57.553Z,85.01
2019-03-05T01:43:57.572Z,85.96
2019-03-05T01:44:57.587Z,86.34
2019-03-05T01:45:57.601Z,86.63
2019-03-05T01:46:57.369Z,86.72
2019-03-05T01:47:57.631Z,86.43
2019-03-05T01:48:57.647Z,87.48
2019-03-05T01:50:12.328Z,86.91
2019-03-05T01:50:57.684Z,87.29
2019-03-05T01:51:57.696Z,87.38
2019-03-05T01:52:57.711Z,87.72
2019-03-05T01:53:57.728Z,86.91
2019-03-05T01:54:57.746Z,87.43
2019-03-05T01:55:57.759Z,87.72
2019-03-05T01:56:57.774Z,87.72
2019-03-05T01:57:57.547Z,87.57
2019-03-05T01:58:57.809Z,88.2
2019-03-05T01:59:57.827Z,88.01
2019-03-05T02:00:57.847Z,88.39
2019-03-05T02:02:57.870Z,88.29
2019-03-05T02:03:57.887Z,88.29
2019-03-05T02:04:57.904Z,87.91
2019-03-05T02:06:12.580Z,88.48
2019-03-05T02:06:57.933Z,88.57
2019-03-05T02:07:57.951Z,88.29
2019-03-05T02:08:57.966Z,89.05
2019-03-05T02:09:57.980Z,89.14
2019-03-05T02:10:57.998Z,89.43
2019-03-05T02:11:58.014Z,89.72
2019-03-05T02:12:58.028Z,89.62
2019-03-05T02:13:58.045Z,89.53
2019-03-05T02:14:58.059Z,90.09
2019-03-05T02:15:58.075Z,90.09
2019-03-05T02:17:58.105Z,89.72
2019-03-05T02:18:58.124Z,89.81
2019-03-05T02:19:58.139Z,89.24
2019-03-05T02:20:58.153Z,89.33
2019-03-05T02:22:12.832Z,89.9
2019-03-05T02:22:58.186Z,90.28
2019-03-05T02:23:58.209Z,90.09
2019-03-05T02:24:58.218Z,89.81
2019-03-05T02:25:58.300Z,89.9
2019-03-05T02:26:58.248Z,89.33
2019-03-05T02:27:58.262Z,89.43
2019-03-05T02:28:58.279Z,90
2019-03-05T02:29:58.296Z,89.43
2019-03-05T02:30:58.313Z,90.38
2019-03-05T02:31:58.330Z,89.62
2019-03-05T02:32:58.353Z,89.62
2019-03-05T02:33:58.358Z,90.19
2019-03-05T02:35:58.399Z,90.19
2019-03-05T02:37:13.069Z,90
2019-03-05T02:37:58.422Z,89.81
2019-03-05T02:38:58.440Z,90.28
2019-03-05T02:39:58.456Z,90.66
2019-03-05T02:40:58.467Z,90.28
2019-03-05T02:41:58.496Z,90.85
2019-03-05T02:42:58.511Z,90.76
2019-03-05T02:43:58.522Z,90.95
2019-03-05T02:44:58.533Z,91.33
2019-03-05T02:45:58.546Z,91.14
2019-03-05T02:48:58.604Z,90.95
2019-03-05T02:49:58.612Z,91.14
2019-03-05T02:50:58.631Z,91.14
2019-03-05T02:51:58.651Z,90.95
2019-03-05T02:53:00.322Z,91.52
2019-03-05T02:53:58.672Z,91.42
2019-03-05T02:54:58.688Z,90.95
2019-03-05T02:55:58.727Z,91.33
2019-03-05T02:56:58.725Z,91.99
2019-03-05T02:57:58.736Z,92.37
2019-03-05T02:58:58.751Z,91.8
2019-03-05T02:59:58.800Z,92.56
2019-03-05T03:00:58.780Z,92.18
2019-03-05T03:01:58.814Z,92.37
2019-03-05T03:02:58.813Z,92.66
2019-03-05T03:03:58.844Z,92.66
2019-03-05T03:04:58.846Z,92.56
2019-03-05T03:06:58.959Z,92.75
2019-03-05T03:07:58.896Z,92.94
2019-03-05T03:09:13.570Z,93.13
2019-03-05T03:09:58.925Z,93.13
2019-03-05T03:10:58.936Z,93.13
2019-03-05T03:11:58.952Z,92.75
2019-03-05T03:12:58.970Z,92.75
2019-03-05T03:13:58.985Z,93.13
2019-03-05T03:14:59.008Z,93.7
2019-03-05T03:15:59.015Z,93.6
2019-03-05T03:17:59.048Z,93.13
2019-03-05T03:18:59.062Z,93.13
2019-03-05T03:19:59.075Z,93.32
2019-03-05T03:20:59.102Z,93.23
2019-03-05T03:22:59.131Z,93.04
2019-03-05T03:23:59.143Z,92.56
2019-03-05T03:25:13.818Z,92.85
2019-03-05T03:25:59.183Z,92.47
2019-03-05T03:27:59.218Z,92.18
2019-03-05T03:28:59.218Z,92.56
2019-03-05T03:29:59.234Z,92.47
2019-03-05T03:30:59.023Z,93.04
2019-03-05T03:31:59.275Z,92.56
2019-03-05T03:33:59.300Z,92.85
2019-03-05T03:34:59.331Z,92.51
2019-03-05T03:35:59.328Z,92.13
2019-03-05T03:36:59.351Z,92.61
2019-03-05T03:37:59.371Z,92.32
2019-03-05T03:38:59.373Z,92.04
2019-03-05T03:39:59.394Z,92.13
2019-03-05T03:41:14.065Z,92.71
2019-03-05T03:42:59.441Z,92.8
2019-03-05T03:43:59.457Z,92.71
2019-03-05T03:44:59.467Z,92.04
2019-03-05T03:46:59.507Z,92.32
2019-03-05T03:47:59.523Z,92.23
2019-03-05T03:48:59.529Z,92.51
2019-03-05T03:49:59.549Z,92.8
2019-03-05T03:50:59.313Z,92.61
2019-03-05T03:51:59.580Z,92.23
2019-03-05T03:52:59.604Z,91.94
2019-03-05T03:53:59.610Z,91.38
2019-03-05T03:54:59.625Z,91.38
2019-03-05T03:55:59.638Z,91.94
2019-03-05T03:57:14.317Z,91.47
2019-03-05T03:57:59.682Z,91.47
2019-03-05T03:59:59.701Z,91.38
2019-03-05T04:00:59.720Z,91.56
2019-03-05T04:01:59.738Z,91.56
2019-03-05T04:02:59.767Z,91.56
2019-03-05T04:03:59.889Z,91.19
2019-03-05T04:04:59.786Z,91.19
2019-03-05T04:05:59.804Z,91.19
2019-03-05T04:06:59.815Z,91.09
2019-03-05T04:07:59.839Z,91.38
2019-03-05T04:08:59.889Z,90.9
2019-03-05T04:09:59.860Z,91.56
2019-03-05T04:10:59.877Z,90.9
2019-03-05T04:12:14.552Z,90.71
2019-03-05T04:12:59.917Z,90.23
2019-03-05T04:14:02.248Z,91.28
2019-03-05T04:14:59.945Z,91.19
2019-03-05T04:15:59.959Z,90.99
2019-03-05T04:16:59.990Z,90.99
2019-03-05T04:18:00.003Z,90.8
2019-03-05T04:19:00.005Z,91.04
2019-03-05T04:20:00.019Z,91.09
2019-03-05T04:21:00.034Z,90.71
2019-03-05T04:22:00.055Z,91.23
2019-03-05T04:23:00.066Z,90.99
2019-03-05T04:24:00.082Z,91.23
2019-03-05T04:25:00.127Z,91.33
2019-03-05T04:26:00.114Z,91.33
2019-03-05T04:27:00.126Z,91.52
2019-03-05T04:28:00.146Z,90.94
2019-03-05T04:29:00.160Z,91.66
2019-03-05T04:30:00.382Z,91.42
2019-03-05T04:31:00.191Z,91.71
2019-03-05T04:32:00.204Z,91.42
2019-03-05T04:33:00.222Z,92.13
2019-03-05T04:34:00.338Z,92.18
2019-03-05T04:35:00.299Z,91.61
2019-03-05T04:36:00.266Z,91.52
2019-03-05T04:37:00.283Z,91.99
2019-03-05T04:38:00.299Z,91.71
2019-03-05T04:39:00.300Z,91.99
2019-03-05T04:40:03.032Z,92.27
2019-03-05T04:41:00.330Z,92.37
2019-03-05T04:42:00.347Z,92.66
2019-03-05T04:43:00.362Z,92.56
2019-03-05T04:44:15.051Z,92.37
2019-03-05T04:45:00.395Z,92.75
2019-03-05T04:46:00.412Z,92.56
2019-03-05T04:47:00.427Z,92.27
2019-03-05T04:48:00.449Z,93.79
2019-03-05T04:49:00.456Z,94.08
2019-03-05T04:52:00.504Z,93.84
2019-03-05T04:53:00.544Z,93.89
2019-03-05T04:54:00.537Z,94.08
2019-03-05T04:55:00.552Z,93.89
2019-03-05T04:56:00.618Z,94.08
2019-03-05T04:57:00.590Z,93.94
2019-03-05T04:58:00.601Z,94.18
2019-03-05T04:59:00.617Z,94.37
2019-03-05T05:00:15.405Z,94.74
2019-03-05T05:01:00.650Z,94.7
2019-03-05T05:02:00.663Z,94.7
2019-03-05T05:03:00.956Z,94.84
2019-03-05T05:04:00.795Z,94.98
2019-03-05T05:05:00.710Z,95.51
2019-03-05T05:06:00.726Z,94.98
2019-03-05T05:07:00.744Z,95.08
2019-03-05T05:08:00.758Z,95.41
2019-03-05T05:09:00.775Z,95.6
2019-03-05T05:10:00.791Z,95.03
2019-03-05T05:11:00.811Z,95.65
2019-03-05T05:12:00.821Z,96.17
2019-03-05T05:13:00.841Z,95.84
2019-03-05T05:14:00.853Z,95.65
2019-03-05T05:15:00.925Z,95.84
2019-03-05T05:16:15.559Z,95.65
2019-03-05T05:17:00.900Z,95.75
2019-03-05T05:18:00.916Z,95.84
2019-03-05T05:20:00.947Z,95.79
2019-03-05T05:21:00.970Z,95.94
2019-03-05T05:23:00.994Z,95.7
2019-03-05T05:24:01.009Z,95.89
2019-03-05T05:25:01.029Z,96.17
2019-03-05T05:26:01.045Z,96.03
2019-03-05T05:27:01.059Z,96.12
2019-03-05T05:28:01.073Z,95.6
2019-03-05T05:29:00.851Z,95.55
2019-03-05T05:30:01.109Z,95.98
2019-03-05T05:31:01.121Z,95.79
2019-03-05T05:32:15.810Z,95.51
2019-03-05T05:33:01.167Z,95.46
2019-03-05T05:34:01.169Z,95.6
2019-03-05T05:35:01.186Z,96.12
2019-03-05T05:36:01.201Z,95.79
2019-03-05T05:37:01.218Z,95.98
2019-03-05T05:38:01.235Z,95.89
2019-03-05T05:39:01.247Z,95.55
2019-03-05T05:40:01.266Z,95.22
2019-03-05T05:41:01.280Z,95.12
2019-03-05T05:42:01.295Z,95.65
2019-03-05T05:43:01.310Z,95.6
2019-03-05T05:44:01.327Z,95.84
2019-03-05T05:45:01.348Z,95.94
2019-03-05T05:46:01.376Z,95.75
2019-03-05T05:47:16.047Z,96.08
2019-03-05T05:48:01.390Z,95.98
2019-03-05T05:49:01.407Z,95.94
2019-03-05T05:50:01.435Z,96.12
2019-03-05T05:51:01.437Z,95.84
2019-03-05T05:52:01.458Z,95.89
2019-03-05T05:53:01.479Z,95.98
2019-03-05T05:54:01.485Z,96.17
2019-03-05T05:55:01.501Z,95.84
2019-03-05T05:56:01.516Z,95.55
2019-03-05T05:57:01.531Z,95.65
2019-03-05T05:58:01.548Z,95.17
2019-03-05T05:59:01.563Z,95.36
2019-03-05T06:00:01.582Z,95.17
2019-03-05T06:01:01.676Z,94.98
2019-03-05T06:02:01.612Z,95.27
2019-03-05T06:03:01.641Z,95.17
2019-03-05T06:04:01.644Z,94.98
2019-03-05T06:05:01.659Z,95.32
2019-03-05T06:06:01.675Z,95.27
2019-03-05T06:07:01.688Z,95.22
2019-03-05T06:08:01.706Z,94.93
2019-03-05T06:09:01.722Z,95.22
2019-03-05T06:10:01.738Z,95.22
2019-03-05T06:11:01.752Z,95.32
2019-03-05T06:12:01.769Z,94.84
2019-03-05T06:13:01.788Z,95.22
2019-03-05T06:14:01.805Z,94.74
2019-03-05T06:15:01.815Z,94.84
2019-03-05T06:16:01.835Z,94.65
2019-03-05T06:17:01.950Z,94.93
2019-03-05T06:18:01.863Z,94.74
2019-03-05T06:19:16.552Z,95.41
2019-03-05T06:20:01.899Z,95.12
2019-03-05T06:21:01.911Z,94.74
2019-03-05T06:22:01.926Z,94.84
2019-03-05T06:23:01.942Z,94.65
2019-03-05T06:24:01.958Z,94.56
2019-03-05T06:26:01.990Z,94.37
2019-03-05T06:27:02.005Z,94.56
2019-03-05T06:28:02.021Z,94.74
2019-03-05T06:29:02.036Z,94.65
2019-03-05T06:30:02.055Z,94.18
2019-03-05T06:31:02.072Z,94.18
2019-03-05T06:32:02.087Z,94.27
2019-03-05T06:33:02.118Z,94.18
2019-03-05T06:34:02.133Z,94.84
2019-03-05T06:35:16.812Z,94.27
2019-03-05T06:36:02.169Z,94.37
2019-03-05T06:37:02.201Z,94.37
2019-03-05T06:38:02.208Z,94.56
2019-03-05T06:39:02.213Z,94.18
2019-03-05T06:40:02.228Z,93.79
2019-03-05T06:41:02.244Z,93.6
2019-03-05T06:43:02.279Z,93.32
2019-03-05T06:44:02.293Z,93.6
2019-03-05T06:45:02.308Z,93.6
2019-03-05T06:46:02.408Z,93.7
2019-03-05T06:47:02.343Z,93.6
2019-03-05T06:48:02.360Z,93.51
2019-03-05T06:49:02.373Z,93.32
2019-03-05T06:50:02.392Z,93.32
2019-03-05T06:51:17.167Z,93.51
2019-03-05T06:52:02.419Z,93.04
2019-03-05T06:53:02.445Z,93.32
2019-03-05T06:54:02.452Z,92.27
2019-03-05T06:55:02.468Z,93.32
2019-03-05T06:56:02.483Z,93.04
2019-03-05T06:57:02.254Z,92.56
2019-03-05T06:58:02.587Z,93.41
2019-03-05T06:59:02.534Z,93.04
2019-03-05T07:00:02.764Z,93.04
2019-03-05T07:02:02.578Z,92.85
2019-03-05T07:04:02.366Z,92.66
2019-03-05T07:05:02.766Z,92.56
2019-03-05T07:06:02.645Z,92.37
2019-03-05T07:07:17.324Z,91.99
2019-03-05T07:08:02.684Z,91.99
2019-03-05T07:09:02.693Z,92.46
2019-03-05T07:10:02.929Z,92.18
2019-03-05T07:11:02.726Z,91.71
2019-03-05T07:12:02.752Z,91.61
2019-03-05T07:13:02.757Z,91.71
2019-03-05T07:14:02.773Z,91.71
2019-03-05T07:15:02.800Z,91.52
2019-03-05T07:16:02.808Z,90.94
2019-03-05T07:17:02.823Z,91.52
2019-03-05T07:18:02.845Z,91.66
2019-03-05T07:20:02.894Z,91.75
2019-03-05T07:21:02.896Z,91.47
2019-03-05T07:22:17.568Z,90.28
2019-03-05T07:23:02.922Z,90.47
2019-03-05T07:24:02.938Z,90.7
2019-03-05T07:25:02.956Z,90.23
2019-03-05T07:26:02.972Z,90.14
2019-03-05T07:27:02.993Z,89.94
2019-03-05T07:28:03.008Z,89.56
2019-03-05T07:29:03.022Z,89.47
2019-03-05T07:30:03.136Z,89.37
2019-03-05T07:31:03.081Z,89.47
2019-03-05T07:32:03.074Z,89.47
2019-03-05T07:33:03.096Z,88.13
2019-03-05T07:35:03.130Z,87.23
2019-03-05T07:36:03.148Z,86.76
2019-03-05T07:37:03.163Z,85.9
2019-03-05T07:38:03.191Z,85.52
2019-03-05T07:39:03.201Z,84.95
2019-03-05T07:40:03.220Z,85.24
2019-03-05T07:41:03.238Z,84.8
2019-03-05T07:42:03.265Z,85.28
2019-03-05T07:43:03.279Z,83.65
2019-03-05T07:44:03.049Z,82.99
2019-03-05T07:46:03.340Z,83.18
2019-03-05T07:47:03.358Z,83.18
2019-03-05T07:48:03.379Z,83.09
2019-03-05T07:49:03.399Z,83.56
2019-03-05T07:50:03.419Z,83.18
2019-03-05T07:52:03.456Z,83.28
2019-03-05T07:53:03.478Z,83.09
2019-03-05T07:54:18.160Z,82.9
2019-03-05T07:55:15.542Z,83.09
2019-03-05T07:56:03.557Z,83.56
2019-03-05T07:57:03.554Z,83.09
2019-03-05T07:58:03.577Z,83.75
2019-03-05T07:59:03.594Z,83.23
2019-03-05T08:00:05.427Z,83.14
2019-03-05T08:01:03.633Z,83.14
2019-03-05T08:02:03.651Z,83.04
2019-03-05T08:03:03.671Z,83.33
2019-03-05T08:04:03.694Z,83.9
2019-03-05T08:05:03.709Z,84.19
2019-03-05T08:06:03.485Z,83.33
2019-03-05T08:07:03.749Z,82.9
2019-03-05T08:08:03.768Z,83.18
2019-03-05T08:09:03.787Z,82.9
2019-03-05T08:10:18.469Z,82.9
2019-03-05T08:11:03.825Z,82.32
2019-03-05T08:12:03.844Z,81.66
2019-03-05T08:13:03.867Z,81.09
2019-03-05T08:14:03.887Z,81.09
2019-03-05T08:15:03.927Z,81.47
2019-03-05T08:16:05.224Z,82.04
2019-03-05T08:17:03.943Z,82.32
2019-03-05T08:18:03.962Z,82.32
2019-03-05T08:19:03.990Z,82.23
2019-03-05T08:20:03.997Z,82.32
2019-03-05T08:21:04.018Z,82.38
2019-03-05T08:22:04.040Z,82.67
2019-03-05T08:24:04.212Z,82.86
2019-03-05T08:25:04.112Z,82.67
2019-03-05T08:26:18.770Z,83.04
2019-03-05T08:27:04.132Z,82.67
2019-03-05T08:28:04.157Z,83.14
2019-03-05T08:29:05.395Z,83.23
2019-03-05T08:31:04.201Z,83.14
2019-03-05T08:32:04.216Z,82.28
2019-03-05T08:33:04.236Z,82.28
2019-03-05T08:34:04.258Z,82.51
2019-03-05T08:35:04.035Z,82.23
2019-03-05T08:36:04.291Z,81.37
2019-03-05T08:37:04.306Z,81.37
2019-03-05T08:38:04.331Z,81.28
2019-03-05T08:39:04.351Z,81.18
2019-03-05T08:40:04.361Z,81.09
2019-03-05T08:41:04.444Z,80.61
2019-03-05T08:42:19.063Z,80.23
2019-03-05T08:43:04.416Z,80.61
2019-03-05T08:44:04.433Z,80.52
2019-03-05T08:45:04.454Z,81.09
2019-03-05T08:46:04.475Z,81.28
2019-03-05T08:47:04.509Z,81.18
2019-03-05T08:48:04.504Z,81.28
2019-03-05T08:49:04.524Z,81.28
2019-03-05T08:50:04.561Z,81.28
2019-03-05T08:51:04.578Z,81.37
2019-03-05T08:52:04.576Z,81.37
2019-03-05T08:53:04.600Z,80.71
2019-03-05T08:55:04.643Z,79.41
2019-03-05T08:56:04.662Z,79.32
2019-03-05T08:57:19.334Z,79.99
2019-03-05T08:58:04.446Z,79.22
2019-03-05T08:59:04.710Z,79.32
2019-03-05T09:00:04.731Z,78.94
2019-03-05T09:01:04.746Z,78.27
2019-03-05T09:02:04.766Z,78.27
2019-03-05T09:03:04.840Z,78.59
2019-03-05T09:04:04.805Z,78.12
2019-03-05T09:05:04.826Z,77.8
2019-03-05T09:06:04.842Z,78.56
2019-03-05T09:07:04.862Z,78.56
2019-03-05T09:08:04.881Z,78.17
2019-03-05T09:09:04.903Z,77.36
2019-03-05T09:10:04.673Z,77.55
2019-03-05T09:11:04.948Z,76.79
2019-03-05T09:12:05.007Z,77.64
2019-03-05T09:13:05.022Z,76.88
2019-03-05T09:14:05.002Z,76.21
2019-03-05T09:15:05.020Z,75.55
2019-03-05T09:16:05.043Z,75.26
2019-03-05T09:17:05.060Z,75.11
2019-03-05T09:18:05.088Z,74.35
2019-03-05T09:19:05.100Z,74.79
2019-03-05T09:20:05.122Z,74.69
2019-03-05T09:21:05.138Z,75.26
2019-03-05T09:22:05.175Z,75.84
2019-03-05T09:23:05.183Z,75.55
2019-03-05T09:25:05.218Z,76.56
2019-03-05T09:26:05.238Z,77.03
2019-03-05T09:27:05.261Z,76.37
2019-03-05T09:28:07.225Z,76.27
2019-03-05T09:29:19.960Z,76.84
2019-03-05T09:30:05.316Z,77.22
2019-03-05T09:31:05.334Z,76.84
2019-03-05T09:32:05.354Z,76.65
2019-03-05T09:33:05.382Z,76.75
2019-03-05T09:34:05.392Z,77.03
2019-03-05T09:35:05.411Z,76.65
2019-03-05T09:36:05.431Z,77.13
2019-03-05T09:37:05.459Z,76.37
2019-03-05T09:38:05.470Z,77.03
2019-03-05T09:39:05.723Z,77.13
2019-03-05T09:40:05.521Z,77.32
2019-03-05T09:41:05.546Z,77.32
2019-03-05T09:42:05.544Z,77.89
2019-03-05T09:43:05.565Z,77.8
2019-03-05T09:44:05.581Z,78.56
2019-03-05T09:45:20.263Z,78.56
2019-03-05T09:46:05.718Z,79.51
2019-03-05T09:47:05.636Z,78.46
2019-03-05T09:48:05.657Z,78.46
2019-03-05T09:49:05.674Z,79.19
2019-03-05T09:50:05.695Z,79.94
2019-03-05T09:51:05.720Z,80.04
2019-03-05T09:52:05.738Z,80.8
2019-03-05T09:53:05.747Z,80.23
2019-03-05T09:54:05.769Z,80.52
2019-03-05T09:55:05.787Z,81.28
2019-03-05T09:56:05.802Z,81.09
2019-03-05T09:57:05.820Z,80.71
2019-03-05T09:58:10.915Z,80.99
2019-03-05T09:59:05.857Z,80.42
2019-03-05T10:00:05.876Z,80.61
2019-03-05T10:01:20.557Z,80.71
2019-03-05T10:02:05.911Z,81.09
2019-03-05T10:03:05.936Z,80.8
2019-03-05T10:04:05.951Z,81.09
2019-03-05T10:05:05.968Z,81.47
2019-03-05T10:06:05.988Z,83.18
2019-03-05T10:07:06.004Z,83.28
2019-03-05T10:08:06.024Z,82.99
2019-03-05T10:09:06.046Z,82.32
2019-03-05T10:10:06.057Z,82.32
2019-03-05T10:11:06.074Z,81.76
2019-03-05T10:12:06.097Z,81.56
2019-03-05T10:13:06.970Z,81.18
2019-03-05T10:14:06.130Z,80.8
2019-03-05T10:15:06.150Z,80.99
2019-03-05T10:16:06.171Z,81.66
2019-03-05T10:17:20.847Z,80.99
2019-03-05T10:18:15.079Z,81.37
2019-03-05T10:19:07.001Z,81.47
2019-03-05T10:20:06.241Z,81.37
2019-03-05T10:21:06.263Z,81.37
2019-03-05T10:22:06.275Z,81.37
2019-03-05T10:24:12.958Z,81.28
2019-03-05T10:25:08.833Z,80.52
2019-03-05T10:26:06.353Z,80.52
2019-03-05T10:27:06.409Z,80.23
2019-03-05T10:29:06.406Z,79.03
2019-03-05T10:31:06.445Z,78.56
2019-03-05T10:32:21.128Z,77.89
2019-03-05T10:33:06.483Z,77.98
2019-03-05T10:34:06.510Z,77.7
2019-03-05T10:35:06.519Z,76.31
2019-03-05T10:36:06.542Z,76.21
2019-03-05T10:37:18.828Z,75.36
2019-03-05T10:38:06.576Z,75.36
2019-03-05T10:39:06.599Z,74.79
2019-03-05T10:40:06.616Z,74.31
2019-03-05T10:41:06.637Z,74.31
2019-03-05T10:42:06.654Z,74.31
2019-03-05T10:43:11.096Z,74.5
2019-03-05T10:44:06.715Z,73.83
2019-03-05T10:46:06.734Z,74.4
2019-03-05T10:47:06.752Z,74.69
2019-03-05T10:48:06.775Z,74.4
2019-03-05T10:49:06.792Z,73.55
2019-03-05T10:50:17.360Z,74.6
2019-03-05T10:51:06.833Z,73.3
2019-03-05T10:52:06.846Z,73.49
2019-03-05T10:53:06.915Z,72.63
2019-03-05T10:54:06.884Z,72.16
2019-03-05T10:55:06.903Z,71.55
2019-03-05T10:56:06.677Z,71.55
2019-03-05T10:57:06.940Z,72.12
2019-03-05T10:58:06.960Z,72.41
2019-03-05T10:59:07.919Z,72.21
2019-03-05T11:00:06.997Z,71.73
2019-03-05T11:01:07.027Z,72.12
2019-03-05T11:02:07.039Z,72.25
2019-03-05T11:03:07.057Z,72.25
2019-03-05T11:04:21.738Z,71.96
2019-03-05T11:05:07.095Z,71.55
2019-03-05T11:06:07.123Z,71.48
2019-03-05T11:07:07.130Z,70.69
2019-03-05T11:08:07.188Z,71.55
2019-03-05T11:09:07.173Z,71.55
2019-03-05T11:10:07.190Z,71.48
2019-03-05T11:11:15.503Z,71.11
2019-03-05T11:12:07.233Z,70.82
2019-03-05T11:13:07.247Z,69.83
2019-03-05T11:15:07.286Z,70.59
2019-03-05T11:17:07.325Z,70.97
2019-03-05T11:18:07.341Z,70.97
2019-03-05T11:19:07.362Z,70.59
2019-03-05T11:20:22.043Z,71.17
2019-03-05T11:21:07.404Z,71.45
2019-03-05T11:22:07.428Z,70.59
2019-03-05T11:23:07.439Z,70.59
2019-03-05T11:24:07.461Z,70.78
2019-03-05T11:25:07.472Z,71.22
2019-03-05T11:26:07.493Z,71.42
2019-03-05T11:27:07.512Z,71.32
2019-03-05T11:28:07.541Z,72.5
2019-03-05T11:30:07.570Z,71.36
2019-03-05T11:31:07.586Z,71.61
2019-03-05T11:32:07.603Z,71.42
2019-03-05T11:33:07.641Z,71.89
2019-03-05T11:34:07.642Z,71.61
2019-03-05T11:35:07.659Z,72.46
2019-03-05T11:36:22.341Z,72.46
2019-03-05T11:37:07.698Z,72.12
2019-03-05T11:38:07.721Z,72.31
2019-03-05T11:39:07.736Z,71.07
2019-03-05T11:40:07.754Z,71.55
2019-03-05T11:41:07.774Z,71.55
2019-03-05T11:42:07.792Z,71.64
2019-03-05T11:43:07.809Z,70.97
2019-03-05T11:45:11.741Z,72.02
2019-03-05T11:46:07.863Z,72.02
2019-03-05T11:47:07.886Z,71.64
2019-03-05T11:49:07.925Z,72.5
2019-03-05T11:50:07.941Z,72.12
2019-03-05T11:51:07.966Z,71.83
2019-03-05T11:52:22.640Z,71.07
2019-03-05T11:53:08.000Z,71.64
2019-03-05T11:54:08.013Z,70.97
2019-03-05T11:55:08.032Z,71.73
2019-03-05T11:56:08.150Z,72.5
2019-03-05T11:57:08.070Z,71.64
2019-03-05T11:58:08.088Z,72.69
2019-03-05T11:59:08.106Z,71.45
2019-03-05T12:00:08.125Z,71.42
2019-03-05T12:01:08.144Z,71.89
2019-03-05T12:02:09.804Z,71.32
2019-03-05T12:03:08.184Z,71.64
2019-03-05T12:04:08.263Z,71.51
2019-03-05T12:06:08.244Z,71.51
2019-03-05T12:07:22.920Z,71.64
2019-03-05T12:08:08.276Z,71.73
2019-03-05T12:09:08.292Z,72.65
2019-03-05T12:10:08.311Z,72.78
2019-03-05T12:11:08.333Z,72.94
2019-03-05T12:12:08.349Z,73.61
2019-03-05T12:13:08.377Z,73.7
2019-03-05T12:14:08.389Z,74.75
2019-03-05T12:15:08.426Z,76.18
2019-03-05T12:16:08.421Z,76.56
2019-03-05T12:17:08.440Z,76.27
2019-03-05T12:19:08.488Z,76.14
2019-03-05T12:21:08.513Z,75.7
2019-03-05T12:22:08.539Z,75.23
2019-03-05T12:24:08.568Z,74.46
2019-03-05T12:25:08.593Z,74.65
2019-03-05T12:26:08.605Z,74.08
2019-03-05T12:27:08.626Z,74.18
2019-03-05T12:28:12.939Z,74.27
2019-03-05T12:29:08.660Z,74.18
2019-03-05T12:30:08.683Z,73.61
2019-03-05T12:31:08.697Z,72.75
2019-03-05T12:32:08.718Z,73.22
2019-03-05T12:33:09.201Z,72.85
2019-03-05T12:34:08.757Z,72.65
2019-03-05T12:35:08.769Z,72.46
2019-03-05T12:37:08.812Z,72.46
2019-03-05T12:38:08.829Z,72.75
2019-03-05T12:39:23.507Z,71.93
2019-03-05T12:40:08.862Z,72.21
2019-03-05T12:41:08.882Z,71.93
2019-03-05T12:42:08.899Z,72.5
2019-03-05T12:43:08.920Z,71.55
2019-03-05T12:44:08.940Z,71.45
2019-03-05T12:45:08.955Z,71.48
2019-03-05T12:46:08.974Z,71.55
2019-03-05T12:47:08.992Z,71.01
2019-03-05T12:48:09.016Z,71.48
2019-03-05T12:49:09.028Z,72.16
2019-03-05T12:51:09.071Z,71.93
2019-03-05T12:52:09.086Z,72.41
2019-03-05T12:53:09.111Z,72.5
2019-03-05T12:54:09.125Z,72.31
2019-03-05T12:55:23.808Z,72.5
2019-03-05T12:56:09.266Z,72.12
2019-03-05T12:57:09.190Z,72.41
2019-03-05T12:58:09.198Z,71.55
2019-03-05T12:59:09.216Z,72.41
2019-03-05T13:00:09.270Z,72.78
2019-03-05T13:01:09.267Z,72.69
2019-03-05T13:02:09.289Z,73.55
2019-03-05T13:03:09.291Z,72.82
2019-03-05T13:04:09.410Z,72.92
2019-03-05T13:05:09.332Z,73.01
2019-03-05T13:06:09.347Z,73.3
2019-03-05T13:07:09.376Z,72.72
2019-03-05T13:09:09.406Z,72.34
2019-03-05T13:10:09.422Z,72.44
2019-03-05T13:11:24.105Z,72.44
2019-03-05T13:12:09.463Z,72.63
2019-03-05T13:13:13.877Z,73.58
2019-03-05T13:14:14.361Z,74.31
2019-03-05T13:15:09.515Z,74.69
2019-03-05T13:16:09.536Z,75.16
2019-03-05T13:17:09.554Z,77.55
2019-03-05T13:18:09.578Z,81.26
2019-03-05T13:19:12.120Z,83.32
2019-03-05T13:20:09.615Z,85.13
2019-03-05T13:21:10.182Z,84.99
2019-03-05T13:22:09.650Z,85.94
2019-03-05T13:23:12.825Z,86.42
2019-03-05T13:24:13.560Z,86.51
2019-03-05T13:25:09.706Z,86.22
2019-03-05T13:26:11.313Z,86.9
2019-03-05T13:27:24.405Z,87.46
2019-03-05T13:28:09.761Z,88.79
2019-03-05T13:29:09.778Z,88.85
2019-03-05T13:30:10.532Z,88.66
2019-03-05T13:31:09.814Z,89.7
2019-03-05T13:32:09.834Z,91.51
2019-03-05T13:33:09.852Z,90.84
2019-03-05T13:34:09.878Z,90.89
2019-03-05T13:35:09.888Z,90.99
2019-03-05T13:36:16.460Z,90.7
2019-03-05T13:38:11.845Z,89.65
2019-03-05T13:39:10.004Z,90.13
2019-03-05T13:40:09.982Z,89.94
2019-03-05T13:41:12.085Z,88.79
2019-03-05T13:42:24.682Z,89.47
2019-03-05T13:43:10.042Z,88.51
2019-03-05T13:44:10.056Z,88.6
2019-03-05T13:45:11.818Z,86.8
2019-03-05T13:46:10.112Z,86.8
2019-03-05T13:47:10.121Z,87.56
2019-03-05T13:48:10.129Z,86.99